Time,TemperatureF,DewpointF,PressureIn,WindDirection,WindDirectionDegrees,WindSpeedMPH,WindSpeedGustMPH,Humidity,HourlyPrecipIn,Conditions,Clouds,dailyrainin,SoftwareType,DateUTC
2013-01-21 00:02:00,21.4,19.9,30.70,ENE,68,1.0,3.0,94,0.00,,---,0.00,VWS V14.01,2013-01-21 08:02:00,
2013-01-21 00:17:00,21.2,19.8,30.70,West,272,0.0,3.0,94,0.00,,---,0.00,VWS V14.01,2013-01-21 08:17:00,
2013-01-21 00:32:00,21.2,19.8,30.70,WSW,238,1.0,2.0,94,0.00,,---,0.00,VWS V14.01,2013-01-21 08:32:00,
2013-01-21 00:47:00,21.2,19.8,30.70,NW,310,0.0,2.0,94,0.00,,---,0.00,VWS V14.01,2013-01-21 08:47:00,
2013-01-21 01:02:00,21.2,19.8,30.69,NW,321,1.0,3.0,94,0.00,,---,0.00,VWS V14.01,2013-01-21 09:02:00,
2013-01-21 01:17:00,21.0,19.5,30.69,NNW,347,0.0,2.0,94,0.00,,---,0.00,VWS V14.01,2013-01-21 09:17:00,
2013-01-21 01:32:00,20.9,19.5,30.70,WNW,285,0.0,3.0,94,0.00,,---,0.00,VWS V14.01,2013-01-21 09:32:00,
2013-01-21 01:47:00,20.8,19.4,30.70,NNE,15,1.0,1.0,94,0.00,,---,0.00,VWS V14.01,2013-01-21 09:47:00,
2013-01-21 02:02:00,20.8,19.4,30.70,WNW,293,0.0,2.0,94,0.00,,---,0.00,VWS V14.01,2013-01-21 10:02:00,
2013-01-21 02:17:00,20.8,19.4,30.70,NNW,336,0.0,2.0,94,0.00,,---,0.00,VWS V14.01,2013-01-21 10:17:00,
2013-01-21 02:32:00,20.6,19.1,30.70,NNE,28,0.0,3.0,94,0.00,,---,0.00,VWS V14.01,2013-01-21 10:32:00,
2013-01-21 02:47:00,20.5,18.8,30.70,WNW,287,0.0,2.0,93,0.00,,---,0.00,VWS V14.01,2013-01-21 10:47:00,
2013-01-21 03:03:00,20.5,18.8,30.70,WNW,292,0.0,2.0,93,0.00,,---,0.00,VWS V14.01,2013-01-21 11:03:00,
2013-01-21 03:17:00,20.6,19.1,30.70,NNW,334,1.0,2.0,94,0.00,,---,0.00,VWS V14.01,2013-01-21 11:17:00,
2013-01-21 03:32:00,20.6,19.1,30.70,NNW,328,0.0,1.0,94,0.00,,---,0.00,VWS V14.01,2013-01-21 11:32:00,
2013-01-21 03:47:00,20.6,18.9,30.70,NW,321,0.0,5.0,93,0.00,,---,0.00,VWS V14.01,2013-01-21 11:47:00,
2013-01-21 04:02:00,20.6,18.9,30.69,NNE,17,0.0,1.0,93,0.00,,---,0.00,VWS V14.01,2013-01-21 12:02:00,
2013-01-21 04:17:00,20.6,18.9,30.69,NE,50,0.0,1.0,93,0.00,,---,0.00,VWS V14.01,2013-01-21 12:17:00,
2013-01-21 04:32:00,20.5,18.8,30.69,ENE,68,0.0,1.0,93,0.00,,---,0.00,VWS V14.01,2013-01-21 12:32:00,
2013-01-21 04:47:00,20.6,18.9,30.68,ENE,77,0.0,1.0,93,0.00,,---,0.00,VWS V14.01,2013-01-21 12:47:00,
2013-01-21 05:02:00,20.6,18.9,30.68,ENE,74,0.0,1.0,93,0.00,,---,0.00,VWS V14.01,2013-01-21 13:02:00,
2013-01-21 05:17:00,20.7,19.0,30.68,NE,39,0.0,1.0,93,0.00,,---,0.00,VWS V14.01,2013-01-21 13:17:00,
2013-01-21 05:32:00,20.6,18.9,30.68,NE,38,0.0,1.0,93,0.00,,---,0.00,VWS V14.01,2013-01-21 13:32:00,
2013-01-21 05:47:00,20.6,18.9,30.68,ENE,73,0.0,2.0,93,0.00,,---,0.00,VWS V14.01,2013-01-21 13:47:00,
2013-01-21 06:02:00,20.3,18.6,30.68,NE,44,0.0,3.0,93,0.00,,---,0.00,VWS V14.01,2013-01-21 14:02:00,
2013-01-21 06:17:00,20.2,18.5,30.67,NE,39,0.0,3.0,93,0.00,,---,0.00,VWS V14.01,2013-01-21 14:17:00,
2013-01-21 06:32:00,20.1,18.4,30.67,NE,38,1.0,4.0,93,0.00,,---,0.00,VWS V14.01,2013-01-21 14:32:00,
2013-01-21 06:47:00,20.1,18.4,30.67,NE,47,0.0,1.0,93,0.00,,---,0.00,VWS V14.01,2013-01-21 14:47:00,
2013-01-21 07:02:00,20.3,18.6,30.66,NE,47,0.0,1.0,93,0.00,,---,0.00,VWS V14.01,2013-01-21 15:02:00,
2013-01-21 07:17:00,20.3,18.6,30.66,NE,53,0.0,1.0,93,0.00,,---,0.00,VWS V14.01,2013-01-21 15:17:00,
2013-01-21 07:32:00,19.9,18.2,30.66,NE,54,0.0,3.0,93,0.00,,---,0.00,VWS V14.01,2013-01-21 15:32:00,
2013-01-21 07:47:00,19.8,18.1,30.66,ENE,63,0.0,3.0,93,0.00,,---,0.00,VWS V14.01,2013-01-21 15:47:00,
2013-01-21 08:02:00,19.8,18.1,30.67,ENE,66,0.0,4.0,93,0.00,,---,0.00,VWS V14.01,2013-01-21 16:02:00,
2013-01-21 08:17:00,19.8,18.1,30.66,ENE,58,0.0,3.0,93,0.00,,---,0.00,VWS V14.01,2013-01-21 16:17:00,
2013-01-21 08:32:00,19.7,18.0,30.66,NE,42,0.0,2.0,93,0.00,,---,0.00,VWS V14.01,2013-01-21 16:32:00,
2013-01-21 08:47:00,19.8,18.1,30.67,East,82,0.0,3.0,93,0.00,,---,0.00,VWS V14.01,2013-01-21 16:47:00,
2013-01-21 09:02:00,19.7,18.0,30.68,ENE,63,1.0,7.0,93,0.00,,---,0.00,VWS V14.01,2013-01-21 17:02:00,
2013-01-21 09:17:00,19.7,18.0,30.68,ENE,71,0.0,4.0,93,0.00,,---,0.00,VWS V14.01,2013-01-21 17:17:00,
2013-01-21 09:32:00,19.7,18.0,30.68,ENE,68,2.0,2.0,93,0.00,,---,0.00,VWS V14.01,2013-01-21 17:32:00,
2013-01-21 09:47:00,19.9,18.2,30.67,ENE,70,2.0,4.0,93,0.00,,---,0.00,VWS V14.01,2013-01-21 17:47:00,
2013-01-21 10:02:00,20.1,18.4,30.68,ENE,62,2.0,4.0,93,0.00,,---,0.00,VWS V14.01,2013-01-21 18:02:00,
2013-01-21 10:17:00,20.0,18.3,30.69,NE,49,1.0,6.0,93,0.00,,---,0.00,VWS V14.01,2013-01-21 18:17:00,
2013-01-21 10:32:00,20.1,18.4,30.69,ENE,59,0.0,5.0,93,0.00,,---,0.00,VWS V14.01,2013-01-21 18:32:00,
2013-01-21 10:47:00,20.2,18.5,30.68,ENE,64,1.0,4.0,93,0.00,,---,0.00,VWS V14.01,2013-01-21 18:47:00,
2013-01-21 11:02:00,20.4,18.7,30.68,NNE,24,0.0,4.0,93,0.00,,---,0.00,VWS V14.01,2013-01-21 19:02:00,
2013-01-21 11:17:00,20.2,18.5,30.68,NE,46,0.0,4.0,93,0.00,,---,0.00,VWS V14.01,2013-01-21 19:17:00,
2013-01-21 11:32:00,20.2,18.5,30.67,NE,39,1.0,3.0,93,0.00,,---,0.00,VWS V14.01,2013-01-21 19:32:00,
2013-01-21 11:47:00,20.3,18.6,30.67,ENE,63,0.0,2.0,93,0.00,,---,0.00,VWS V14.01,2013-01-21 19:47:00,
2013-01-21 12:02:00,20.7,19.0,30.66,NNW,341,0.0,1.0,93,0.00,,---,0.00,VWS V14.01,2013-01-21 20:02:00,
2013-01-21 12:17:00,20.7,19.0,30.65,SW,226,1.0,2.0,93,0.00,,---,0.00,VWS V14.01,2013-01-21 20:17:00,
2013-01-21 12:32:00,21.0,19.3,30.65,WSW,242,0.0,1.0,93,0.00,,---,0.00,VWS V14.01,2013-01-21 20:32:00,
2013-01-21 12:47:00,21.0,19.3,30.64,NE,56,0.0,1.0,93,0.00,,---,0.00,VWS V14.01,2013-01-21 20:47:00,
2013-01-21 13:02:00,21.1,19.4,30.64,NNE,15,0.0,1.0,93,0.00,,---,0.00,VWS V14.01,2013-01-21 21:02:00,
2013-01-21 13:17:00,20.9,19.2,30.63,NNW,336,0.0,2.0,93,0.00,,---,0.00,VWS V14.01,2013-01-21 21:17:00,
2013-01-21 13:32:00,21.1,19.4,30.63,NE,50,0.0,1.0,93,0.00,,---,0.00,VWS V14.01,2013-01-21 21:32:00,
2013-01-21 13:47:00,20.9,19.2,30.62,WSW,240,1.0,4.0,93,0.00,,---,0.00,VWS V14.01,2013-01-21 21:47:00,
2013-01-21 14:02:00,20.8,19.1,30.62,WSW,255,0.0,2.0,93,0.00,,---,0.00,VWS V14.01,2013-01-21 22:02:00,
2013-01-21 14:17:00,21.0,19.3,30.61,SW,219,3.0,3.0,93,0.00,,---,0.00,VWS V14.01,2013-01-21 22:17:00,
2013-01-21 14:32:00,20.9,19.2,30.61,SW,223,0.0,3.0,93,0.00,,---,0.00,VWS V14.01,2013-01-21 22:32:00,
2013-01-21 14:47:00,20.9,19.2,30.61,SSW,210,0.0,3.0,93,0.00,,---,0.00,VWS V14.01,2013-01-21 22:47:00,
2013-01-21 15:02:00,20.8,19.1,30.61,SW,224,4.0,4.0,93,0.00,,---,0.00,VWS V14.01,2013-01-21 23:02:00,
2013-01-21 15:17:00,20.8,19.1,30.62,WSW,241,2.0,4.0,93,0.00,,---,0.00,VWS V14.01,2013-01-21 23:17:00,
2013-01-21 15:32:00,20.9,19.2,30.61,SSW,206,1.0,4.0,93,0.00,,---,0.00,VWS V14.01,2013-01-21 23:32:00,
2013-01-21 15:47:00,20.9,19.2,30.61,SW,224,2.0,6.0,93,0.00,,---,0.00,VWS V14.01,2013-01-21 23:47:00,
2013-01-21 16:02:00,20.8,19.1,30.61,SW,236,0.0,4.0,93,0.00,,---,0.00,VWS V14.01,2013-01-22 00:02:00,
2013-01-21 16:17:00,20.8,19.1,30.61,NE,49,0.0,2.0,93,0.00,,---,0.00,VWS V14.01,2013-01-22 00:17:00,
2013-01-21 16:32:00,20.7,19.0,30.61,South,178,0.0,2.0,93,0.00,,---,0.00,VWS V14.01,2013-01-22 00:32:00,
2013-01-21 16:47:00,20.6,18.9,30.61,SSW,207,0.0,3.0,93,0.00,,---,0.00,VWS V14.01,2013-01-22 00:47:00,
2013-01-21 17:02:00,20.5,18.8,30.61,SSW,207,0.0,3.0,93,0.00,,---,0.00,VWS V14.01,2013-01-22 01:02:00,
2013-01-21 17:17:00,20.6,18.9,30.60,SSW,206,0.0,1.0,93,0.00,,---,0.00,VWS V14.01,2013-01-22 01:17:00,
2013-01-21 17:32:00,20.5,18.8,30.60,SSW,206,0.0,1.0,93,0.00,,---,0.00,VWS V14.01,2013-01-22 01:32:00,
2013-01-21 17:47:00,20.4,18.7,30.61,SW,230,0.0,3.0,93,0.00,,---,0.00,VWS V14.01,2013-01-22 01:47:00,
2013-01-21 18:02:00,20.4,18.7,30.61,SW,222,1.0,2.0,93,0.00,,---,0.00,VWS V14.01,2013-01-22 02:02:00,
2013-01-21 18:17:00,20.5,18.8,30.62,SW,225,0.0,2.0,93,0.00,,---,0.00,VWS V14.01,2013-01-22 02:17:00,
2013-01-21 18:32:00,20.5,18.8,30.62,SW,226,0.0,2.0,93,0.00,,---,0.00,VWS V14.01,2013-01-22 02:32:00,
2013-01-21 18:47:00,20.4,18.7,30.62,SW,229,0.0,2.0,93,0.00,,---,0.00,VWS V14.01,2013-01-22 02:47:00,
2013-01-21 19:02:00,20.4,18.7,30.62,West,276,0.0,1.0,93,0.00,,---,0.00,VWS V14.01,2013-01-22 03:02:00,
2013-01-21 19:17:00,20.5,18.8,30.61,West,276,0.0,0.0,93,0.00,,---,0.00,VWS V14.01,2013-01-22 03:17:00,
2013-01-21 19:32:00,20.5,18.8,30.61,West,276,0.0,1.0,93,0.00,,---,0.00,VWS V14.01,2013-01-22 03:32:00,
2013-01-21 19:47:00,20.7,19.0,30.61,West,276,0.0,0.0,93,0.00,,---,0.00,VWS V14.01,2013-01-22 03:47:00,
2013-01-21 20:02:00,20.6,18.9,30.61,East,93,0.0,1.0,93,0.00,,---,0.00,VWS V14.01,2013-01-22 04:02:00,
2013-01-21 20:17:00,20.4,18.7,30.61,WNW,288,0.0,3.0,93,0.00,,---,0.00,VWS V14.01,2013-01-22 04:17:00,
2013-01-21 20:32:00,20.2,18.5,30.62,WNW,292,0.0,2.0,93,0.00,,---,0.00,VWS V14.01,2013-01-22 04:32:00,
2013-01-21 20:47:00,20.2,18.5,30.62,ENE,71,0.0,2.0,93,0.00,,---,0.00,VWS V14.01,2013-01-22 04:47:00,
2013-01-21 21:02:00,20.1,18.4,30.61,ENE,74,0.0,3.0,93,0.00,,---,0.00,VWS V14.01,2013-01-22 05:02:00,
2013-01-21 21:17:00,20.3,18.6,30.61,ENE,68,2.0,2.0,93,0.00,,---,0.00,VWS V14.01,2013-01-22 05:17:00,
2013-01-21 21:32:00,20.3,18.6,30.62,East,80,2.0,2.0,93,0.00,,---,0.00,VWS V14.01,2013-01-22 05:32:00,
2013-01-21 21:47:00,20.1,18.4,30.61,ENE,62,1.0,4.0,93,0.00,,---,0.00,VWS V14.01,2013-01-22 05:47:00,
2013-01-21 22:02:00,20.1,18.4,30.62,ENE,58,0.0,3.0,93,0.00,,---,0.00,VWS V14.01,2013-01-22 06:02:00,
2013-01-21 22:17:00,20.0,18.3,30.62,ENE,66,0.0,4.0,93,0.00,,---,0.00,VWS V14.01,2013-01-22 06:17:00,
2013-01-21 22:32:00,20.1,18.4,30.62,NE,55,0.0,3.0,93,0.00,,---,0.00,VWS V14.01,2013-01-22 06:32:00,
2013-01-21 22:47:00,20.0,18.3,30.62,NE,53,0.0,1.0,93,0.00,,---,0.00,VWS V14.01,2013-01-22 06:47:00,
2013-01-21 23:02:00,20.0,18.3,30.62,NE,53,0.0,3.0,93,0.00,,---,0.00,VWS V14.01,2013-01-22 07:02:00,
2013-01-21 23:17:00,19.9,18.2,30.63,ENE,61,3.0,6.0,93,0.00,,---,0.00,VWS V14.01,2013-01-22 07:17:00,
2013-01-21 23:32:00,19.7,18.0,30.63,ENE,78,0.0,8.0,93,0.00,,---,0.00,VWS V14.01,2013-01-22 07:32:00,
2013-01-21 23:47:00,19.6,17.9,30.63,ENE,70,1.0,5.0,93,0.00,,---,0.00,VWS V14.01,2013-01-22 07:47:00,